FWI26C TFFF-TFFR
Flight info
| Callsign | FWI26C |
|---|---|
| Flight time | 0h 31m |
| Altitude | 12000 |
| Route | LIDOS2R LIDOS DCT PPR |
| Aircraft | AT75/M-SDFGIRY/S |
Departure
| Time | 2026-05-05 21:50 |
|---|---|
| Airport | Martinique Aimé Césaire International Airport (TFFF) |
Arrival
| Time | 2026-05-05 22:21 |
|---|---|
| Airport | Maryse Condé International Airport (TFFR) |
| Time | Latitude | Longitude | Altitude | Speed | Heading |
|---|---|---|---|---|---|
| 2026-05-05 21:42 | 14.59470 | -60.99871 | 22 ft | 0 kts | 75° |
| 2026-05-05 21:46 | 14.59470 | -60.99866 | 22 ft | 5 kts | 94° |
| 2026-05-05 21:47 | 14.59375 | -60.99903 | 22 ft | 10 kts | 264° |
| 2026-05-05 21:47 | 14.59361 | -60.99995 | 22 ft | 16 kts | 259° |
| 2026-05-05 21:47 | 14.59264 | -61.00013 | 22 ft | 16 kts | 169° |
| 2026-05-05 21:47 | 14.59161 | -61.00035 | 22 ft | 17 kts | 246° |
| 2026-05-05 21:48 | 14.59129 | -61.00214 | 22 ft | 39 kts | 258° |
| 2026-05-05 21:48 | 14.59074 | -61.00523 | 22 ft | 48 kts | 259° |
| 2026-05-05 21:48 | 14.59006 | -61.00888 | 22 ft | 49 kts | 259° |
| 2026-05-05 21:48 | 14.59019 | -61.01143 | 22 ft | 17 kts | 290° |
| 2026-05-05 21:49 | 14.58963 | -61.01149 | 22 ft | 10 kts | 78° |
| 2026-05-05 21:49 | 14.59016 | -61.00868 | 23 ft | 74 kts | 81° |
| 2026-05-05 21:49 | 14.59133 | -61.00182 | 136 ft | 110 kts | 79° |
| 2026-05-05 21:49 | 14.59282 | -60.99377 | 485 ft | 117 kts | 80° |
| 2026-05-05 21:50 | 14.59420 | -60.98551 | 890 ft | 120 kts | 81° |
| 2026-05-05 21:50 | 14.59562 | -60.97703 | 1314 ft | 120 kts | 80° |
| 2026-05-05 21:50 | 14.59707 | -60.96860 | 1695 ft | 124 kts | 80° |
| 2026-05-05 21:50 | 14.59866 | -60.95922 | 1991 ft | 136 kts | 81° |
| 2026-05-05 21:51 | 14.60027 | -60.94975 | 2362 ft | 141 kts | 81° |
| 2026-05-05 21:51 | 14.60200 | -60.93957 | 2747 ft | 146 kts | 81° |
| 2026-05-05 21:51 | 14.60377 | -60.92912 | 3085 ft | 153 kts | 81° |
| 2026-05-05 21:51 | 14.60564 | -60.91816 | 3409 ft | 159 kts | 81° |
| 2026-05-05 21:52 | 14.61464 | -60.89784 | 4146 ft | 170 kts | 30° |
| 2026-05-05 21:52 | 14.62637 | -60.89561 | 4537 ft | 175 kts | 4° |
| 2026-05-05 21:52 | 14.63865 | -60.89644 | 4910 ft | 178 kts | 356° |
| 2026-05-05 21:53 | 14.65017 | -60.89814 | 5253 ft | 180 kts | 354° |
| 2026-05-05 21:53 | 14.66270 | -60.90034 | 5623 ft | 181 kts | 353° |
| 2026-05-05 21:53 | 14.67538 | -60.90270 | 5989 ft | 182 kts | 352° |
| 2026-05-05 21:53 | 14.68795 | -60.90508 | 6344 ft | 183 kts | 352° |
| 2026-05-05 21:54 | 14.70038 | -60.90745 | 6687 ft | 184 kts | 352° |
| 2026-05-05 21:54 | 14.71291 | -60.90984 | 7025 ft | 185 kts | 352° |
| 2026-05-05 21:54 | 14.72555 | -60.91225 | 7359 ft | 186 kts | 351° |
| 2026-05-05 21:54 | 14.73828 | -60.91469 | 7688 ft | 187 kts | 351° |
| 2026-05-05 21:55 | 14.75110 | -60.91714 | 8012 ft | 188 kts | 351° |
| 2026-05-05 21:55 | 14.76399 | -60.91960 | 8331 ft | 188 kts | 351° |
| 2026-05-05 21:55 | 14.77676 | -60.92205 | 8640 ft | 189 kts | 351° |
| 2026-05-05 21:55 | 14.78974 | -60.92453 | 8947 ft | 190 kts | 351° |
| 2026-05-05 21:56 | 14.80274 | -60.92702 | 9249 ft | 191 kts | 351° |
| 2026-05-05 21:56 | 14.81568 | -60.92949 | 9543 ft | 191 kts | 351° |
| 2026-05-05 21:56 | 14.82880 | -60.93200 | 9834 ft | 192 kts | 351° |
| 2026-05-05 21:56 | 14.84192 | -60.93451 | 10120 ft | 193 kts | 350° |
| 2026-05-05 21:57 | 14.85498 | -60.93701 | 10399 ft | 193 kts | 350° |
| 2026-05-05 21:57 | 14.86828 | -60.93955 | 10676 ft | 194 kts | 350° |
| 2026-05-05 21:57 | 14.88161 | -60.94210 | 10949 ft | 195 kts | 350° |
| 2026-05-05 21:57 | 14.89483 | -60.94464 | 11212 ft | 195 kts | 350° |
| 2026-05-05 21:58 | 14.90812 | -60.94719 | 11469 ft | 196 kts | 350° |
| 2026-05-05 21:58 | 14.92147 | -60.94975 | 11723 ft | 197 kts | 350° |
| 2026-05-05 21:58 | 14.93495 | -60.95232 | 11972 ft | 198 kts | 350° |
| 2026-05-05 21:58 | 14.94881 | -60.95501 | 12052 ft | 208 kts | 350° |
| 2026-05-05 21:59 | 14.96347 | -60.95786 | 12066 ft | 219 kts | 350° |
| 2026-05-05 21:59 | 14.97861 | -60.96081 | 12067 ft | 229 kts | 350° |
| 2026-05-05 21:59 | 14.99459 | -60.96392 | 12065 ft | 238 kts | 351° |
| 2026-05-05 21:59 | 15.01106 | -60.96713 | 12064 ft | 245 kts | 351° |
| 2026-05-05 22:00 | 15.02805 | -60.97043 | 12062 ft | 251 kts | 351° |
| 2026-05-05 22:00 | 15.04536 | -60.97380 | 12061 ft | 256 kts | 351° |
| 2026-05-05 22:00 | 15.06295 | -60.97722 | 12062 ft | 260 kts | 351° |
| 2026-05-05 22:00 | 15.08079 | -60.98069 | 12064 ft | 263 kts | 351° |
| 2026-05-05 22:01 | 15.09866 | -60.98418 | 12067 ft | 266 kts | 351° |
| 2026-05-05 22:01 | 15.11741 | -60.98783 | 12069 ft | 268 kts | 351° |
| 2026-05-05 22:01 | 15.13588 | -60.99143 | 12072 ft | 269 kts | 351° |
| 2026-05-05 22:01 | 15.15431 | -60.99502 | 12075 ft | 271 kts | 351° |
| 2026-05-05 22:02 | 15.17268 | -60.99860 | 12078 ft | 272 kts | 351° |
| 2026-05-05 22:02 | 15.19124 | -61.00222 | 12081 ft | 273 kts | 351° |
| 2026-05-05 22:02 | 15.21000 | -61.00588 | 12083 ft | 274 kts | 351° |
| 2026-05-05 22:02 | 15.22856 | -61.00950 | 12083 ft | 274 kts | 351° |
| 2026-05-05 22:03 | 15.24741 | -61.01318 | 12083 ft | 275 kts | 351° |
| 2026-05-05 22:03 | 15.26618 | -61.01684 | 12083 ft | 275 kts | 351° |
| 2026-05-05 22:03 | 15.28502 | -61.02052 | 12083 ft | 276 kts | 351° |
| 2026-05-05 22:03 | 15.30371 | -61.02416 | 12083 ft | 276 kts | 351° |
| 2026-05-05 22:04 | 15.32259 | -61.02785 | 12083 ft | 276 kts | 351° |
| 2026-05-05 22:04 | 15.34150 | -61.03154 | 12083 ft | 277 kts | 351° |
| 2026-05-05 22:04 | 15.36026 | -61.03521 | 12083 ft | 277 kts | 351° |
| 2026-05-05 22:04 | 15.37926 | -61.03891 | 12083 ft | 277 kts | 351° |
| 2026-05-05 22:05 | 15.39820 | -61.04262 | 12083 ft | 277 kts | 351° |
| 2026-05-05 22:05 | 15.41697 | -61.04628 | 12083 ft | 277 kts | 351° |
| 2026-05-05 22:05 | 15.43601 | -61.05000 | 12083 ft | 277 kts | 351° |
| 2026-05-05 22:05 | 15.45490 | -61.05370 | 12083 ft | 277 kts | 351° |
| 2026-05-05 22:06 | 15.47370 | -61.05737 | 12083 ft | 277 kts | 351° |
| 2026-05-05 22:06 | 15.49262 | -61.06107 | 12083 ft | 277 kts | 351° |
| 2026-05-05 22:06 | 15.51164 | -61.06479 | 12083 ft | 277 kts | 351° |
| 2026-05-05 22:06 | 15.53047 | -61.06847 | 12083 ft | 277 kts | 351° |
| 2026-05-05 22:07 | 15.54941 | -61.07218 | 12083 ft | 277 kts | 351° |
| 2026-05-05 22:07 | 15.56805 | -61.07665 | 12076 ft | 278 kts | 343° |
| 2026-05-05 22:07 | 15.58561 | -61.08529 | 12080 ft | 280 kts | 330° |
| 2026-05-05 22:07 | 15.60152 | -61.09701 | 12084 ft | 280 kts | 326° |
| 2026-05-05 22:08 | 15.61749 | -61.10848 | 12083 ft | 280 kts | 327° |
| 2026-05-05 22:08 | 15.63373 | -61.11966 | 12083 ft | 280 kts | 328° |
| 2026-05-05 22:08 | 15.64999 | -61.13063 | 12083 ft | 280 kts | 328° |
| 2026-05-05 22:08 | 15.66628 | -61.14151 | 12083 ft | 280 kts | 329° |
| 2026-05-05 22:09 | 15.68262 | -61.15239 | 12083 ft | 280 kts | 329° |
| 2026-05-05 22:09 | 15.69890 | -61.16319 | 12083 ft | 280 kts | 329° |
| 2026-05-05 22:09 | 15.71542 | -61.17416 | 12083 ft | 280 kts | 329° |
| 2026-05-05 22:09 | 15.73175 | -61.18500 | 12083 ft | 280 kts | 329° |
| 2026-05-05 22:10 | 15.74810 | -61.19585 | 12083 ft | 280 kts | 329° |
| 2026-05-05 22:10 | 15.76436 | -61.20665 | 12083 ft | 280 kts | 329° |
| 2026-05-05 22:10 | 15.78073 | -61.21751 | 12083 ft | 280 kts | 329° |
| 2026-05-05 22:10 | 15.79707 | -61.22837 | 12083 ft | 280 kts | 329° |
| 2026-05-05 22:11 | 15.81302 | -61.24027 | 12047 ft | 282 kts | 324° |
| 2026-05-05 22:11 | 15.82812 | -61.25335 | 11770 ft | 286 kts | 321° |
| 2026-05-05 22:11 | 15.84319 | -61.26662 | 11398 ft | 285 kts | 321° |
| 2026-05-05 22:11 | 15.85818 | -61.27982 | 11020 ft | 281 kts | 321° |
| 2026-05-05 22:12 | 15.87291 | -61.29280 | 10645 ft | 278 kts | 321° |
| 2026-05-05 22:12 | 15.88760 | -61.30575 | 10268 ft | 276 kts | 321° |
| 2026-05-05 22:12 | 15.90211 | -61.31855 | 9892 ft | 273 kts | 321° |
| 2026-05-05 22:12 | 15.91649 | -61.33123 | 9517 ft | 271 kts | 321° |
| 2026-05-05 22:13 | 15.93073 | -61.34378 | 9144 ft | 269 kts | 321° |
| 2026-05-05 22:13 | 15.94495 | -61.35632 | 8767 ft | 266 kts | 321° |
| 2026-05-05 22:13 | 15.95890 | -61.36863 | 8393 ft | 264 kts | 321° |
| 2026-05-05 22:13 | 15.97280 | -61.38089 | 8019 ft | 262 kts | 321° |
| 2026-05-05 22:14 | 15.98660 | -61.39306 | 7644 ft | 260 kts | 321° |
| 2026-05-05 22:14 | 16.00041 | -61.40525 | 7266 ft | 258 kts | 321° |
| 2026-05-05 22:14 | 16.01388 | -61.41713 | 6894 ft | 256 kts | 321° |
| 2026-05-05 22:14 | 16.02746 | -61.42912 | 6402 ft | 257 kts | 321° |
| 2026-05-05 22:15 | 16.04106 | -61.44110 | 5905 ft | 257 kts | 321° |
| 2026-05-05 22:15 | 16.05468 | -61.45310 | 5407 ft | 257 kts | 321° |
| 2026-05-05 22:15 | 16.06780 | -61.46465 | 4927 ft | 256 kts | 321° |
| 2026-05-05 22:15 | 16.08155 | -61.47676 | 4423 ft | 256 kts | 321° |
| 2026-05-05 22:16 | 16.09518 | -61.48875 | 3922 ft | 255 kts | 321° |
| 2026-05-05 22:16 | 16.10885 | -61.50076 | 3419 ft | 255 kts | 321° |
| 2026-05-05 22:16 | 16.12277 | -61.51299 | 2904 ft | 254 kts | 321° |
| 2026-05-05 22:16 | 16.13605 | -61.52465 | 2411 ft | 253 kts | 321° |
| 2026-05-05 22:17 | 16.14945 | -61.53635 | 1914 ft | 252 kts | 322° |
| 2026-05-05 22:17 | 16.16310 | -61.54753 | 1584 ft | 244 kts | 323° |
| 2026-05-05 22:17 | 16.17592 | -61.55804 | 1523 ft | 225 kts | 324° |
| 2026-05-05 22:17 | 16.18827 | -61.56725 | 1366 ft | 214 kts | 328° |
| 2026-05-05 22:18 | 16.20040 | -61.57537 | 1287 ft | 198 kts | 330° |
| 2026-05-05 22:18 | 16.20869 | -61.58041 | 1226 ft | 188 kts | 335° |
| 2026-05-05 22:18 | 16.21996 | -61.58603 | 1263 ft | 161 kts | 341° |
| 2026-05-05 22:18 | 16.22976 | -61.58937 | 1163 ft | 139 kts | 349° |
| 2026-05-05 22:19 | 16.23849 | -61.59006 | 1056 ft | 120 kts | 11° |
| 2026-05-05 22:19 | 16.24664 | -61.58826 | 995 ft | 120 kts | 20° |
| 2026-05-05 22:19 | 16.25428 | -61.58505 | 901 ft | 120 kts | 32° |
| 2026-05-05 22:19 | 16.26083 | -61.57995 | 775 ft | 113 kts | 48° |
| 2026-05-05 22:20 | 16.26563 | -61.57399 | 600 ft | 106 kts | 61° |
| 2026-05-05 22:20 | 16.26873 | -61.56692 | 509 ft | 108 kts | 75° |
| 2026-05-05 22:20 | 16.26968 | -61.55924 | 410 ft | 108 kts | 92° |
| 2026-05-05 22:20 | 16.26891 | -61.55142 | 241 ft | 107 kts | 101° |
| 2026-05-05 22:21 | 16.26752 | -61.54404 | 79 ft | 104 kts | 102° |
| 2026-05-05 22:21 | 16.26618 | -61.53683 | 35 ft | 93 kts | 101° |
| 2026-05-05 22:21 | 16.26526 | -61.53168 | 24 ft | 33 kts | 103° |
| 2026-05-05 22:21 | 16.26539 | -61.52991 | 22 ft | 22 kts | 26° |
| 2026-05-05 22:22 | 16.26680 | -61.52961 | 19 ft | 18 kts | 9° |
| 2026-05-05 22:22 | 16.26794 | -61.52938 | 19 ft | 15 kts | 10° |
| 2026-05-05 22:22 | 16.26866 | -61.52963 | 19 ft | 12 kts | 288° |
| 2026-05-05 22:22 | 16.26919 | -61.53020 | 19 ft | 13 kts | 336° |
| 2026-05-05 22:23 | 16.27015 | -61.53051 | 19 ft | 14 kts | 11° |
| 2026-05-05 22:23 | 16.27104 | -61.53003 | 19 ft | 14 kts | 52° |
| 2026-05-05 22:23 | 16.27103 | -61.52937 | 19 ft | 4 kts | 158° |
| 2026-05-05 22:23 | 16.27089 | -61.52943 | 19 ft | 0 kts | 220° |